createdAt,value
2024-03-07T00:00:30.191Z,100815.53
2024-03-07T00:02:57.041Z,100806.97
2024-03-07T00:05:26.740Z,100820.69
2024-03-07T00:07:54.598Z,100817.13
2024-03-07T00:10:24.384Z,100809.34
2024-03-07T00:12:51.292Z,100810.09
2024-03-07T00:15:19.017Z,100809.28
2024-03-07T00:17:46.016Z,100808.50
2024-03-07T00:20:16.884Z,100806.75
2024-03-07T00:22:44.417Z,100804.25
2024-03-07T00:25:12.522Z,100806.75
2024-03-07T00:27:42.414Z,100815.28
2024-03-07T00:30:14.663Z,100813.66
2024-03-07T00:32:41.659Z,100817.97
2024-03-07T00:35:12.061Z,100815.34
2024-03-07T00:37:38.868Z,100819.56
2024-03-07T00:40:07.462Z,100816.88
2024-03-07T00:42:35.177Z,100815.91
2024-03-07T00:45:02.458Z,100817.59
2024-03-07T00:47:29.250Z,100818.44
2024-03-07T00:49:56.794Z,100824.44
2024-03-07T00:52:23.490Z,100817.56
2024-03-07T00:54:50.955Z,100815.03
2024-03-07T00:57:17.669Z,100819.25
2024-03-07T00:59:44.392Z,100815.75
2024-03-07T01:02:11.199Z,100820.13
2024-03-07T01:04:37.935Z,100825.25
2024-03-07T01:07:05.015Z,100821.03
2024-03-07T01:09:31.787Z,100821.75
2024-03-07T01:12:01.017Z,100817.44
2024-03-07T01:14:28.384Z,100819.91
2024-03-07T01:16:55.322Z,100821.50
2024-03-07T01:19:22.105Z,100814.56
2024-03-07T01:21:49.480Z,100818.78
2024-03-07T01:24:19.475Z,100819.69
2024-03-07T01:26:46.328Z,100819.75
2024-03-07T01:29:13.391Z,100809.53
2024-03-07T01:31:40.129Z,100812.94
2024-03-07T01:34:06.767Z,100813.66
2024-03-07T01:36:33.418Z,100812.72
2024-03-07T01:39:00.168Z,100809.28
2024-03-07T01:41:26.887Z,100813.50
2024-03-07T01:43:53.609Z,100809.03
2024-03-07T01:46:21.035Z,100804.56
2024-03-07T01:48:49.214Z,100795.75
2024-03-07T01:51:16.561Z,100798.19
2024-03-07T01:53:43.793Z,100796.34
2024-03-07T01:56:11.052Z,100792.75
2024-03-07T01:58:38.066Z,100796.88
2024-03-07T02:01:04.841Z,100797.72
2024-03-07T02:03:31.641Z,100793.41
2024-03-07T02:05:58.441Z,100792.47
2024-03-07T02:08:25.302Z,100795.91
2024-03-07T02:10:52.044Z,100787.19
2024-03-07T02:13:19.469Z,100789.56
2024-03-07T02:15:46.418Z,100786.84
2024-03-07T02:18:13.623Z,100784.88
2024-03-07T02:20:45.328Z,100785.53
2024-03-07T02:23:12.121Z,100793.94
2024-03-07T02:25:39.053Z,100779.31
2024-03-07T02:28:06.223Z,100782.56
2024-03-07T02:30:33.444Z,100784.22
2024-03-07T02:33:07.536Z,100775.56
2024-03-07T02:35:36.544Z,100777.19
2024-03-07T02:38:04.612Z,100784.00
2024-03-07T02:40:31.761Z,100778.78
2024-03-07T02:42:59.175Z,100778.59
2024-03-07T02:45:26.351Z,100781.00
2024-03-07T02:47:55.420Z,100772.31
2024-03-07T02:50:25.804Z,100778.91
2024-03-07T02:52:53.936Z,100771.09
2024-03-07T02:55:21.617Z,100773.59
2024-03-07T02:57:48.423Z,100772.63
2024-03-07T03:00:22.246Z,100780.19
2024-03-07T03:02:50.466Z,100779.19
2024-03-07T03:05:17.708Z,100768.75
2024-03-07T03:07:53.863Z,100770.41
2024-03-07T03:10:27.356Z,100770.22
2024-03-07T03:12:55.265Z,100764.09
2024-03-07T03:15:22.281Z,100763.09
2024-03-07T03:17:49.259Z,100764.72
2024-03-07T03:20:25.673Z,100760.28
2024-03-07T03:25:25.821Z,100766.84
2024-03-07T03:27:52.800Z,100770.16
2024-03-07T03:30:19.649Z,100769.34
2024-03-07T03:32:47.996Z,100765.09
2024-03-07T03:35:17.692Z,100760.84
2024-03-07T03:37:44.489Z,100762.53
2024-03-07T03:40:11.977Z,100759.97
2024-03-07T03:42:39.289Z,100760.28
2024-03-07T03:45:07.361Z,100769.94
2024-03-07T03:47:38.857Z,100769.69
2024-03-07T03:50:07.325Z,100763.94
2024-03-07T03:52:36.176Z,100765.03
2024-03-07T03:55:04.139Z,100760.38
2024-03-07T03:57:31.842Z,100768.63
2024-03-07T03:59:59.022Z,100768.34
2024-03-07T04:02:26.368Z,100776.53
2024-03-07T04:04:53.836Z,100771.78
2024-03-07T04:07:20.598Z,100771.28
2024-03-07T04:09:47.487Z,100773.31
2024-03-07T04:12:14.986Z,100776.16
2024-03-07T04:14:42.145Z,100778.13
2024-03-07T04:17:09.712Z,100772.31
2024-03-07T04:19:36.957Z,100766.41
2024-03-07T04:22:04.527Z,100772.53
2024-03-07T04:24:33.851Z,100773.50
2024-03-07T04:27:01.722Z,100783.06
2024-03-07T04:29:28.621Z,100784.03
2024-03-07T04:31:55.355Z,100785.06
2024-03-07T04:34:22.021Z,100781.66
2024-03-07T04:36:49.075Z,100785.19
2024-03-07T04:39:25.604Z,100792.13
2024-03-07T04:41:56.973Z,100790.53
2024-03-07T04:44:26.223Z,100794.81
2024-03-07T04:46:56.744Z,100798.28
2024-03-07T04:49:25.137Z,100794.94
2024-03-07T04:51:55.356Z,100802.66
2024-03-07T04:54:23.314Z,100800.97
2024-03-07T04:56:52.559Z,100804.41
2024-03-07T04:59:20.676Z,100807.88
2024-03-07T05:01:48.340Z,100808.03
2024-03-07T05:04:16.604Z,100810.63
2024-03-07T05:06:44.485Z,100796.09
2024-03-07T05:09:24.075Z,100791.88
2024-03-07T05:11:54.166Z,100801.34
2024-03-07T05:14:21.671Z,100797.13
2024-03-07T05:17:06.308Z,100795.44
2024-03-07T05:19:34.189Z,100798.09
2024-03-07T05:22:01.443Z,100793.88
2024-03-07T05:24:28.361Z,100793.97
2024-03-07T05:26:55.423Z,100787.19
2024-03-07T05:29:22.733Z,100801.88
2024-03-07T05:31:49.576Z,100795.91
2024-03-07T05:34:24.695Z,100797.66
2024-03-07T05:36:52.392Z,100803.72
2024-03-07T05:39:19.453Z,100795.25
2024-03-07T05:41:47.101Z,100795.28
2024-03-07T05:44:14.363Z,100793.59
2024-03-07T05:46:47.032Z,100804.00
2024-03-07T05:49:14.780Z,100798.91
2024-03-07T05:51:46.476Z,100804.94
2024-03-07T05:54:14.029Z,100803.13
2024-03-07T05:56:41.792Z,100798.09
2024-03-07T05:59:10.832Z,100804.94
2024-03-07T06:01:38.042Z,100806.69
2024-03-07T06:04:07.035Z,100812.78
2024-03-07T06:06:35.010Z,100812.81
2024-03-07T06:09:09.732Z,100806.81
2024-03-07T06:11:39.946Z,100810.22
2024-03-07T06:14:08.210Z,100803.38
2024-03-07T06:16:40.277Z,100801.69
2024-03-07T06:19:10.539Z,100798.28
2024-03-07T06:21:40.692Z,100799.16
2024-03-07T06:24:09.671Z,100806.03
2024-03-07T06:26:38.850Z,100804.28
2024-03-07T06:29:14.945Z,100803.41
2024-03-07T06:31:44.825Z,100809.47
2024-03-07T06:34:11.603Z,100810.41
2024-03-07T06:36:38.852Z,100812.16
2024-03-07T06:39:08.708Z,100811.31
2024-03-07T06:41:35.711Z,100799.34
2024-03-07T06:44:03.105Z,100805.34
2024-03-07T06:46:30.587Z,100803.69
2024-03-07T06:48:57.649Z,100809.72
2024-03-07T06:51:26.169Z,100790.91
2024-03-07T06:53:53.274Z,100791.88
2024-03-07T06:56:20.316Z,100796.22
2024-03-07T06:58:47.440Z,100794.56
2024-03-07T07:01:16.823Z,100793.72
2024-03-07T07:03:49.033Z,100803.22
2024-03-07T07:06:16.369Z,100802.34
2024-03-07T07:08:43.503Z,100799.84
2024-03-07T07:11:12.992Z,100799.00
2024-03-07T07:13:40.199Z,100801.72
2024-03-07T07:16:07.245Z,100799.16
2024-03-07T07:18:34.808Z,100790.59
2024-03-07T07:21:04.487Z,100802.69
2024-03-07T07:23:31.536Z,100801.94
2024-03-07T07:25:58.675Z,100800.25
2024-03-07T07:28:25.636Z,100814.00
2024-03-07T07:30:52.821Z,100813.22
2024-03-07T07:33:19.935Z,100806.44
2024-03-07T07:35:46.913Z,100803.09
2024-03-07T07:38:16.460Z,100803.09
2024-03-07T07:40:44.350Z,100797.16
2024-03-07T07:43:19.507Z,100798.91
2024-03-07T07:45:52.381Z,100805.84
2024-03-07T07:48:20.816Z,100802.44
2024-03-07T07:50:52.129Z,100792.19
2024-03-07T07:53:19.053Z,100799.16
2024-03-07T07:55:47.763Z,100789.75
2024-03-07T07:58:14.689Z,100797.63
2024-03-07T08:00:44.579Z,100792.56
2024-03-07T08:03:11.914Z,100793.50
2024-03-07T08:05:39.502Z,100792.72
2024-03-07T08:08:08.755Z,100794.53
2024-03-07T08:10:37.348Z,100786.84
2024-03-07T08:13:07.274Z,100799.78
2024-03-07T08:15:34.440Z,100795.56
2024-03-07T08:18:01.904Z,100785.34
2024-03-07T08:20:30.278Z,100779.47
2024-03-07T08:22:57.740Z,100777.84
2024-03-07T08:25:26.388Z,100777.88
2024-03-07T08:27:54.964Z,100773.69
2024-03-07T08:30:22.078Z,100771.22
2024-03-07T08:32:53.316Z,100784.19
2024-03-07T08:35:20.646Z,100776.50
2024-03-07T08:37:54.974Z,100776.53
2024-03-07T08:40:28.065Z,100771.47
2024-03-07T08:42:57.405Z,100770.69
2024-03-07T08:45:25.234Z,100763.91
2024-03-07T08:47:58.848Z,100766.59
2024-03-07T08:50:28.395Z,100758.16
2024-03-07T08:52:55.469Z,100750.59
2024-03-07T08:55:24.442Z,100761.09
2024-03-07T08:57:52.372Z,100762.03
2024-03-07T09:00:27.524Z,100764.69
2024-03-07T09:03:00.321Z,100774.19
2024-03-07T09:05:28.780Z,100758.78
2024-03-07T09:07:56.120Z,100761.44
2024-03-07T09:10:22.973Z,100766.63
2024-03-07T09:12:53.481Z,100764.91
2024-03-07T09:15:23.432Z,100764.03
2024-03-07T09:17:50.797Z,100763.25
2024-03-07T09:20:17.863Z,100757.38
2024-03-07T09:22:45.979Z,100749.81
2024-03-07T09:25:14.690Z,100756.03
2024-03-07T09:27:42.320Z,100755.38
2024-03-07T09:30:13.393Z,100755.41
2024-03-07T09:32:42.295Z,100755.50
2024-03-07T09:35:13.497Z,100756.34
2024-03-07T09:37:44.625Z,100740.97
2024-03-07T09:40:16.612Z,100747.13
2024-03-07T09:42:53.995Z,100747.31
2024-03-07T09:45:22.346Z,100742.28
2024-03-07T09:47:52.015Z,100745.81
2024-03-07T09:50:20.873Z,100741.50
2024-03-07T09:52:50.701Z,100744.13
2024-03-07T09:55:26.564Z,100753.69
2024-03-07T09:57:57.393Z,100750.22
2024-03-07T10:00:29.667Z,100749.28
2024-03-07T10:03:06.562Z,100746.72
2024-03-07T10:05:33.876Z,100745.97
2024-03-07T10:08:02.466Z,100741.78
2024-03-07T10:10:31.501Z,100740.88
2024-03-07T10:12:59.942Z,100740.03
2024-03-07T10:15:34.390Z,100744.31
2024-03-07T10:18:02.704Z,100738.28
2024-03-07T10:20:30.443Z,100737.47
2024-03-07T10:23:01.715Z,100740.94
2024-03-07T10:25:30.026Z,100742.59
2024-03-07T10:27:58.949Z,100743.38
2024-03-07T10:30:26.672Z,100755.47
2024-03-07T10:32:56.967Z,100745.13
2024-03-07T10:35:27.261Z,100746.06
2024-03-07T10:37:55.359Z,100754.66
2024-03-07T10:40:23.952Z,100738.31
2024-03-07T10:42:53.676Z,100744.31
2024-03-07T10:45:24.911Z,100737.47
2024-03-07T10:47:58.893Z,100734.03
2024-03-07T10:50:49.898Z,100721.97
2024-03-07T10:53:26.997Z,100719.50
2024-03-07T10:56:00.348Z,100723.00
2024-03-07T10:58:48.704Z,100728.19
2024-03-07T11:01:16.065Z,100721.44
2024-03-07T11:03:43.817Z,100719.81
2024-03-07T11:06:12.961Z,100729.41
2024-03-07T11:08:41.221Z,100722.56
2024-03-07T11:11:08.261Z,100723.41
2024-03-07T11:13:35.586Z,100715.69
2024-03-07T11:16:04.338Z,100723.47
2024-03-07T11:18:31.277Z,100720.88
2024-03-07T11:20:59.361Z,100712.19
2024-03-07T11:23:30.886Z,100714.81
2024-03-07T11:26:09.167Z,100708.91
2024-03-07T11:28:41.618Z,100715.00
2024-03-07T11:31:28.325Z,100695.28
2024-03-07T11:34:20.136Z,100694.47
2024-03-07T11:36:48.157Z,100680.81
2024-03-07T11:39:43.913Z,100684.34
2024-03-07T11:42:36.670Z,100675.78
2024-03-07T11:45:07.462Z,100683.59
2024-03-07T11:47:40.029Z,100684.50
2024-03-07T11:50:12.666Z,100679.41
2024-03-07T11:52:43.240Z,100678.47
2024-03-07T11:55:10.342Z,100685.25
2024-03-07T11:57:37.521Z,100681.69
2024-03-07T12:00:12.304Z,100677.25
2024-03-07T12:02:40.434Z,100686.72
2024-03-07T12:05:08.570Z,100669.50
2024-03-07T12:07:35.474Z,100666.03
2024-03-07T12:10:06.984Z,100656.56
2024-03-07T12:12:34.592Z,100654.88
2024-03-07T12:15:03.616Z,100641.97
2024-03-07T12:17:33.170Z,100655.69
2024-03-07T12:20:03.934Z,100634.16
2024-03-07T12:22:31.953Z,100637.59
2024-03-07T12:25:10.026Z,100640.06
2024-03-07T12:27:39.875Z,100641.75
2024-03-07T12:30:17.784Z,100647.75
2024-03-07T12:32:51.172Z,100622.81
2024-03-07T12:35:19.387Z,100619.44
2024-03-07T12:37:47.557Z,100622.06
2024-03-07T12:40:20.630Z,100610.03
2024-03-07T12:42:49.300Z,100612.63
2024-03-07T12:45:20.026Z,100613.53
2024-03-07T12:47:55.399Z,100605.81
2024-03-07T12:50:22.728Z,100597.25
2024-03-07T12:52:53.452Z,100598.22
2024-03-07T12:55:22.636Z,100593.94
2024-03-07T12:57:51.297Z,100586.22
2024-03-07T13:00:21.886Z,100591.50
2024-03-07T13:02:49.957Z,100583.81
2024-03-07T13:05:22.565Z,100584.78
2024-03-07T13:07:50.083Z,100575.31
2024-03-07T13:10:17.201Z,100573.59
2024-03-07T13:12:46.880Z,100561.56
2024-03-07T13:15:14.074Z,100572.75
2024-03-07T13:17:41.297Z,100556.38
2024-03-07T13:20:15.296Z,100562.44
2024-03-07T13:22:48.307Z,100552.94
2024-03-07T13:25:20.862Z,100555.53
2024-03-07T13:27:58.559Z,100553.81
2024-03-07T13:30:28.631Z,100554.69
2024-03-07T13:33:00.316Z,100549.56
2024-03-07T13:35:28.624Z,100537.53
2024-03-07T13:37:56.798Z,100547.06
2024-03-07T13:40:27.744Z,100539.34
2024-03-07T13:42:59.264Z,100528.22
2024-03-07T13:45:32.833Z,100529.22
2024-03-07T13:48:01.046Z,100522.41
2024-03-07T13:50:47.305Z,100524.16
2024-03-07T13:53:30.324Z,100506.16
2024-03-07T13:56:25.240Z,100508.81
2024-03-07T13:59:10.793Z,100491.72
2024-03-07T14:01:55.609Z,100498.66
2024-03-07T14:04:53.756Z,100490.94
2024-03-07T14:07:51.794Z,100490.16
2024-03-07T14:10:57.402Z,100477.28
2024-03-07T14:13:55.463Z,100484.25
2024-03-07T14:16:59.702Z,100469.56
2024-03-07T14:20:30.908Z,100453.22
2024-03-07T14:23:34.907Z,100437.84
2024-03-07T14:26:07.598Z,100440.63
2024-03-07T14:28:53.703Z,100435.53
2024-03-07T14:31:23.706Z,100432.16
2024-03-07T14:34:07.504Z,100427.88
2024-03-07T14:36:40.407Z,100427.03
2024-03-07T14:39:07.912Z,100417.56
2024-03-07T14:42:11.072Z,100405.50
2024-03-07T14:44:43.986Z,100408.13
2024-03-07T14:47:15.619Z,100413.31
2024-03-07T14:49:42.952Z,100403.81
2024-03-07T14:52:12.572Z,100404.63
2024-03-07T14:54:39.656Z,100401.19
2024-03-07T14:57:06.612Z,100403.75
2024-03-07T14:59:33.751Z,100397.72
2024-03-07T15:02:03.879Z,100380.44
2024-03-07T15:04:34.096Z,100387.34
2024-03-07T15:07:03.822Z,100382.19
2024-03-07T15:09:31.571Z,100388.19
2024-03-07T15:11:59.019Z,100409.75
2024-03-07T15:14:33.415Z,100381.25
2024-03-07T15:17:07.772Z,100382.91
2024-03-07T15:19:36.255Z,100382.88
2024-03-07T15:22:04.524Z,100379.41
2024-03-07T15:24:31.766Z,100375.09
2024-03-07T15:26:58.945Z,100380.28
2024-03-07T15:29:25.810Z,100372.50
2024-03-07T15:31:52.549Z,100356.97
2024-03-07T15:34:19.234Z,100355.25
2024-03-07T15:36:46.746Z,100353.53
2024-03-07T15:39:27.787Z,100348.34
2024-03-07T15:41:55.976Z,100343.19
2024-03-07T15:44:22.956Z,100332.81
2024-03-07T15:46:50.108Z,100326.78
2024-03-07T15:49:18.441Z,100323.34
2024-03-07T15:51:47.052Z,100326.81
2024-03-07T15:54:18.691Z,100324.22
2024-03-07T15:56:46.164Z,100321.63
2024-03-07T15:59:12.842Z,100321.63
2024-03-07T16:01:39.655Z,100321.59
2024-03-07T16:04:08.241Z,100315.53
2024-03-07T16:06:34.967Z,100307.75
2024-03-07T16:09:01.732Z,100314.66
2024-03-07T16:11:28.536Z,100317.19
2024-03-07T16:13:55.301Z,100321.47
2024-03-07T16:16:22.026Z,100324.91
2024-03-07T16:18:48.717Z,100318.88
2024-03-07T16:21:15.625Z,100315.41
2024-03-07T16:23:42.714Z,100315.41
2024-03-07T16:26:09.558Z,100318.84
2024-03-07T16:28:36.249Z,100313.69
2024-03-07T16:31:06.304Z,100310.25
2024-03-07T16:33:34.967Z,100306.81
2024-03-07T16:36:02.055Z,100307.66
2024-03-07T16:38:29.172Z,100300.75
2024-03-07T16:40:55.940Z,100306.78
2024-03-07T16:43:26.044Z,100305.03
2024-03-07T16:45:54.615Z,100301.59
2024-03-07T16:48:21.851Z,100297.28
2024-03-07T16:50:48.896Z,100296.41
2024-03-07T16:53:17.622Z,100289.50
2024-03-07T16:55:48.625Z,100286.06
2024-03-07T16:58:18.091Z,100286.91
2024-03-07T17:00:45.294Z,100286.03
2024-03-07T17:03:14.566Z,100294.66
2024-03-07T17:05:44.008Z,100284.31
2024-03-07T17:08:17.611Z,100287.75
2024-03-07T17:10:46.061Z,100279.13
2024-03-07T17:13:14.967Z,100281.72
2024-03-07T17:15:46.919Z,100278.25
2024-03-07T17:18:17.276Z,100279.97
2024-03-07T17:20:47.113Z,100279.09
2024-03-07T17:23:16.976Z,100278.25
2024-03-07T17:25:44.754Z,100282.53
2024-03-07T17:28:11.515Z,100279.94
2024-03-07T17:30:40.197Z,100273.06
2024-03-07T17:33:08.553Z,100277.34
2024-03-07T17:35:38.189Z,100285.09
2024-03-07T17:38:05.278Z,100279.91
2024-03-07T17:40:34.697Z,100273.00
2024-03-07T17:43:04.678Z,100280.75
2024-03-07T17:45:37.579Z,100282.47
2024-03-07T17:48:07.775Z,100288.47
2024-03-07T17:50:36.729Z,100288.47
2024-03-07T17:53:09.678Z,100283.28
2024-03-07T17:55:37.968Z,100275.50
2024-03-07T17:58:05.248Z,100280.66
2024-03-07T18:00:33.611Z,100271.16
2024-03-07T18:03:09.597Z,100271.13
2024-03-07T18:05:39.573Z,100264.25
2024-03-07T18:08:27.435Z,100267.66
2024-03-07T18:11:00.702Z,100276.22
2024-03-07T18:13:27.676Z,100265.00
2024-03-07T18:15:54.437Z,100265.84
2024-03-07T18:18:25.366Z,100275.31
2024-03-07T18:20:52.814Z,100276.16
2024-03-07T18:23:19.834Z,100266.66
2024-03-07T18:25:48.644Z,100274.41
2024-03-07T18:28:21.413Z,100274.38
2024-03-07T18:30:49.180Z,100280.38
2024-03-07T18:33:16.088Z,100276.94
2024-03-07T18:35:44.003Z,100272.63
2024-03-07T18:38:10.996Z,100270.00
2024-03-07T18:40:37.774Z,100272.59
2024-03-07T18:43:09.092Z,100268.25
2024-03-07T18:45:37.305Z,100279.44
2024-03-07T18:48:09.146Z,100264.75
2024-03-07T18:50:46.658Z,100265.59
2024-03-07T18:53:16.535Z,100266.44
2024-03-07T18:55:48.333Z,100258.66
2024-03-07T18:58:17.112Z,100257.78
2024-03-07T19:00:49.806Z,100258.63
2024-03-07T19:03:19.817Z,100260.31
2024-03-07T19:05:47.788Z,100257.72
2024-03-07T19:08:21.103Z,100254.25
2024-03-07T19:10:48.968Z,100256.81
2024-03-07T19:13:17.684Z,100255.94
2024-03-07T19:15:45.041Z,100253.34
2024-03-07T19:18:14.536Z,100255.88
2024-03-07T19:20:42.773Z,100246.38
2024-03-07T19:23:11.850Z,100239.47
2024-03-07T19:25:42.318Z,100252.41
2024-03-07T19:28:16.507Z,100240.34
2024-03-07T19:30:49.044Z,100246.34
2024-03-07T19:33:16.833Z,100243.75
2024-03-07T19:35:44.961Z,100232.56
2024-03-07T19:38:11.741Z,100237.69
2024-03-07T19:40:38.839Z,100241.97
2024-03-07T19:43:07.862Z,100233.34
2024-03-07T19:45:38.671Z,100241.94
2024-03-07T19:48:06.145Z,100243.63
2024-03-07T19:50:33.439Z,100242.78
2024-03-07T19:53:03.048Z,100230.72
2024-03-07T19:55:32.558Z,100241.03
2024-03-07T19:58:00.041Z,100235.00
2024-03-07T20:00:32.423Z,100249.59
2024-03-07T20:03:04.579Z,100234.09
2024-03-07T20:05:33.469Z,100234.97
2024-03-07T20:08:00.584Z,100235.84
2024-03-07T20:10:30.520Z,100244.44
2024-03-07T20:12:58.190Z,100240.09
2024-03-07T20:15:25.712Z,100240.13
2024-03-07T20:17:54.986Z,100241.78
2024-03-07T20:20:30.765Z,100240.06
2024-03-07T20:22:58.323Z,100240.03
2024-03-07T20:25:29.140Z,100241.75
2024-03-07T20:27:59.236Z,100240.00
2024-03-07T20:30:33.465Z,100229.66
2024-03-07T20:33:00.858Z,100230.53
2024-03-07T20:35:27.943Z,100235.66
2024-03-07T20:37:55.993Z,100231.34
2024-03-07T20:40:25.849Z,100237.38
2024-03-07T20:42:55.350Z,100235.63
2024-03-07T20:45:23.004Z,100230.47
2024-03-07T20:47:50.600Z,100226.19
2024-03-07T20:50:21.412Z,100224.41
2024-03-07T20:52:55.538Z,100217.47
2024-03-07T20:55:27.805Z,100215.72
2024-03-07T20:57:57.277Z,100216.59
2024-03-07T21:00:26.098Z,100218.28
2024-03-07T21:02:54.172Z,100218.22
2024-03-07T21:05:21.995Z,100219.91
2024-03-07T21:07:52.044Z,100222.44
2024-03-07T21:10:21.191Z,100216.41
2024-03-07T21:12:48.444Z,100211.19
2024-03-07T21:15:16.565Z,100213.78
2024-03-07T21:17:43.892Z,100217.19
2024-03-07T21:20:12.833Z,100216.28
2024-03-07T21:22:44.542Z,100212.84
2024-03-07T21:25:18.842Z,100204.22
2024-03-07T21:27:47.665Z,100205.91
2024-03-07T21:30:17.448Z,100199.00
2024-03-07T21:32:45.860Z,100200.72
2024-03-07T21:35:13.198Z,100200.72
2024-03-07T21:37:43.997Z,100200.66
2024-03-07T21:40:17.151Z,100195.47
2024-03-07T21:42:44.782Z,100192.84
2024-03-07T21:45:17.507Z,100175.59
2024-03-07T21:47:48.186Z,100185.88
2024-03-07T21:50:16.177Z,100187.50
2024-03-07T21:52:49.381Z,100171.13
2024-03-07T21:55:21.879Z,100174.59
2024-03-07T21:57:55.249Z,100176.25
2024-03-07T22:00:25.656Z,100167.63
2024-03-07T22:02:59.551Z,100169.28
2024-03-07T22:05:34.216Z,100185.56
2024-03-07T22:08:01.986Z,100169.19
2024-03-07T22:10:30.690Z,100170.03
2024-03-07T22:12:58.013Z,100158.84
2024-03-07T22:15:24.953Z,100160.53
2024-03-07T22:17:54.350Z,100160.53
2024-03-07T22:20:24.501Z,100157.94
2024-03-07T22:22:53.097Z,100151.91
2024-03-07T22:25:22.892Z,100155.31
2024-03-07T22:27:50.490Z,100158.69
2024-03-07T22:30:22.167Z,100149.19
2024-03-07T22:32:49.649Z,100161.09
2024-03-07T22:35:16.458Z,100148.19
2024-03-07T22:37:52.634Z,100137.84
2024-03-07T22:40:24.752Z,100141.22
2024-03-07T22:42:52.382Z,100134.34
2024-03-07T22:45:19.360Z,100128.28
2024-03-07T22:47:47.244Z,100123.97
2024-03-07T22:50:26.220Z,100126.53
2024-03-07T22:52:57.240Z,100110.19
2024-03-07T22:55:24.398Z,100102.47
2024-03-07T22:57:51.607Z,100104.16
2024-03-07T23:00:29.548Z,100111.88
2024-03-07T23:03:01.275Z,100098.97
2024-03-07T23:05:29.958Z,100103.28
2024-03-07T23:07:58.233Z,100092.91
2024-03-07T23:10:25.229Z,100097.19
2024-03-07T23:12:53.782Z,100092.84
2024-03-07T23:15:25.441Z,100090.28
2024-03-07T23:17:53.285Z,100089.38
2024-03-07T23:20:23.088Z,100080.78
2024-03-07T23:22:56.300Z,100087.63
2024-03-07T23:25:24.157Z,100091.03
2024-03-07T23:27:55.246Z,100090.13
2024-03-07T23:30:23.655Z,100092.69
2024-03-07T23:32:52.250Z,100087.53
2024-03-07T23:35:19.768Z,100089.25
2024-03-07T23:37:46.625Z,100084.94
2024-03-07T23:40:14.805Z,100085.78
2024-03-07T23:42:46.163Z,100068.63
2024-03-07T23:45:14.128Z,100064.34
2024-03-07T23:47:42.852Z,100061.78
2024-03-07T23:50:14.215Z,100054.91
2024-03-07T23:52:42.820Z,100056.59
2024-03-07T23:55:12.400Z,100051.47
2024-03-07T23:57:41.014Z,100057.44
